Time;durP1;ratioP1;P1;durP2;ratioP2;P2;SDS_P1;SDS_P2;PMS_P1;PMS_P2;Temp;Humidity;BMP_temperature;BMP_pressure;BME280_temperature;BME280_humidity;BME280_pressure;Samples;Min_cycle;Max_cycle;Signal;HPM_P1;HPM_P2
2023/01/13 00:00:45;;;;;;;10.15;1.10;;;;;;;6.88;100.00;99477.94;4991733;28;20116;-50
2023/01/13 00:03:10;;;;;;;14.18;2.92;;;;;;;6.60;100.00;99470.03;5003269;28;20096;-50
2023/01/13 00:05:36;;;;;;;8.02;1.33;;;;;;;6.65;100.00;99450.00;4993383;28;20434;-50
2023/01/13 00:08:06;;;;;;;4.72;0.60;;;;;;;6.68;100.00;99446.19;4991438;28;20041;-51
2023/01/13 00:10:33;;;;;;;7.97;2.15;;;;;;;6.89;100.00;99437.41;4986653;28;20375;-52
2023/01/13 00:12:59;;;;;;;8.10;1.45;;;;;;;7.08;100.00;99435.94;4991116;28;20030;-48
2023/01/13 00:15:25;;;;;;;2.78;0.22;;;;;;;7.13;100.00;99446.72;4988593;28;20046;-51
2023/01/13 00:17:50;;;;;;;8.25;0.90;;;;;;;7.07;100.00;99445.63;4990901;28;20025;-62
2023/01/13 00:20:16;;;;;;;16.55;2.65;;;;;;;7.18;100.00;99431.94;4986677;28;20018;-51
2023/01/13 00:22:41;;;;;;;16.25;2.22;;;;;;;7.17;100.00;99437.38;4988594;28;20076;-52
2023/01/13 00:25:07;;;;;;;4.25;0.73;;;;;;;7.17;100.00;99446.09;4989361;28;20379;-53
2023/01/13 00:27:33;;;;;;;9.73;2.15;;;;;;;7.26;100.00;99456.50;4989167;28;20033;-65
2023/01/13 00:29:58;;;;;;;10.68;0.70;;;;;;;7.16;100.00;99444.50;4985898;28;20018;-53
2023/01/13 00:32:24;;;;;;;11.57;1.45;;;;;;;7.10;100.00;99450.53;4990481;28;20091;-52
2023/01/13 00:34:49;;;;;;;7.72;0.55;;;;;;;7.19;100.00;99444.09;4983813;28;20077;-51
2023/01/13 00:37:14;;;;;;;5.28;0.50;;;;;;;7.11;100.00;99415.25;4986386;28;20476;-53
2023/01/13 00:39:40;;;;;;;10.65;1.75;;;;;;;7.06;100.00;99414.22;4986616;28;20368;-53
2023/01/13 00:44:50;;;;;;;6.50;1.27;;;;;;;6.87;100.00;99413.09;4986360;28;20091;-53
2023/01/13 00:47:17;;;;;;;14.25;0.60;;;;;;;7.01;100.00;99414.78;4986321;28;20030;-57
2023/01/13 00:49:42;;;;;;;11.80;0.65;;;;;;;6.94;100.00;99408.66;4984983;28;20148;-52
2023/01/13 00:52:08;;;;;;;9.90;2.40;;;;;;;6.76;100.00;99409.97;4984449;28;20145;-54
2023/01/13 00:54:33;;;;;;;19.33;1.02;;;;;;;6.94;100.00;99409.50;4985744;28;20053;-56
2023/01/13 00:56:58;;;;;;;10.43;3.05;;;;;;;7.02;100.00;99407.69;4986531;28;20029;-49
2023/01/13 00:59:24;;;;;;;7.55;1.15;;;;;;;7.03;100.00;99417.25;4985551;28;20065;-66
2023/01/13 01:01:49;;;;;;;9.32;0.43;;;;;;;7.16;100.00;99425.22;4985973;28;20511;-51
2023/01/13 01:04:14;;;;;;;5.43;0.40;;;;;;;7.10;100.00;99415.44;4989006;28;21072;-62
2023/01/13 01:06:40;;;;;;;9.85;0.88;;;;;;;7.09;100.00;99430.44;4989792;28;20073;-58
2023/01/13 01:09:05;;;;;;;6.43;0.95;;;;;;;7.07;100.00;99419.28;4986345;28;20392;-54
2023/01/13 01:11:32;;;;;;;5.35;1.98;;;;;;;7.15;100.00;99426.22;4984244;28;20027;-49
2023/01/13 01:14:00;;;;;;;11.32;1.17;;;;;;;7.16;100.00;99423.41;4984730;28;20057;-53
2023/01/13 01:16:27;;;;;;;3.30;0.98;;;;;;;7.19;100.00;99409.81;4986600;28;20065;-54
2023/01/13 01:18:53;;;;;;;12.25;2.20;;;;;;;7.14;100.00;99420.13;4982561;28;20088;-54
2023/01/13 01:21:20;;;;;;;6.68;1.90;;;;;;;6.96;100.00;99422.47;4984401;28;20038;-54
2023/01/13 01:23:46;;;;;;;15.23;1.52;;;;;;;6.98;100.00;99410.72;4984404;28;20041;-50
2023/01/13 01:26:18;;;;;;;9.82;1.35;;;;;;;6.80;100.00;99420.13;4986219;28;20038;-53
2023/01/13 01:28:44;;;;;;;9.40;0.60;;;;;;;6.71;100.00;99435.25;4985212;28;20515;-49
2023/01/13 01:31:19;;;;;;;13.55;1.75;;;;;;;6.77;100.00;99430.03;4984558;28;20049;-52
2023/01/13 01:33:46;;;;;;;9.23;1.95;;;;;;;6.67;100.00;99423.47;4985160;28;20125;-49
2023/01/13 01:36:12;;;;;;;13.65;1.35;;;;;;;6.77;100.00;99427.41;4984438;28;20041;-53
2023/01/13 01:38:38;;;;;;;11.38;1.17;;;;;;;7.03;100.00;99423.31;4985115;28;20022;-51
2023/01/13 01:41:04;;;;;;;11.18;1.85;;;;;;;6.95;100.00;99426.13;4986775;28;20077;-51
2023/01/13 01:43:58;;;;;;;16.58;2.33;;;;;;;6.99;100.00;99436.06;4987363;28;20038;-48
2023/01/13 01:46:38;;;;;;;10.15;1.15;;;;;;;7.14;100.00;99435.94;4988695;28;20389;-53
2023/01/13 01:49:21;;;;;;;9.10;1.15;;;;;;;6.95;100.00;99442.75;4985051;28;20030;-53
2023/01/13 01:51:51;;;;;;;16.52;1.40;;;;;;;6.92;100.00;99427.31;4985036;28;20046;-50
2023/01/13 01:54:24;;;;;;;13.18;0.60;;;;;;;6.62;100.00;99445.13;4985435;28;20023;-50
2023/01/13 01:56:50;;;;;;;16.33;2.00;;;;;;;6.54;100.00;99453.16;4987903;28;20612;-51
2023/01/13 01:59:16;;;;;;;16.48;2.47;;;;;;;6.48;100.00;99438.09;4984842;28;20030;-48
2023/01/13 02:01:42;;;;;;;9.68;2.28;;;;;;;6.48;100.00;99446.00;4984841;28;20026;-48
2023/01/13 02:04:23;;;;;;;15.65;0.82;;;;;;;6.54;100.00;99458.44;4984836;28;20036;-49
2023/01/13 02:06:49;;;;;;;14.02;2.67;;;;;;;6.31;100.00;99448.91;4986343;28;20034;-51
2023/01/13 02:09:16;;;;;;;9.45;1.48;;;;;;;6.34;100.00;99471.41;4985726;28;20027;-50
2023/01/13 02:14:27;;;;;;;15.85;1.95;;;;;;;6.39;100.00;99470.84;4987631;28;20096;-55
2023/01/13 02:16:58;;;;;;;12.90;1.80;;;;;;;6.30;100.00;99462.28;4989259;28;20030;-50
2023/01/13 02:19:35;;;;;;;8.00;1.77;;;;;;;6.45;100.00;99467.44;4986270;28;20508;-49
2023/01/13 02:22:09;;;;;;;7.10;1.85;;;;;;;6.60;100.00;99459.50;4989004;28;20026;-55
2023/01/13 02:25:01;;;;;;;14.93;2.08;;;;;;;6.74;100.00;99462.03;4989315;28;20357;-51
2023/01/13 02:27:27;;;;;;;13.35;1.63;;;;;;;6.90;100.00;99481.22;4989556;28;20030;-50
2023/01/13 02:32:49;;;;;;;13.60;1.88;;;;;;;7.08;100.00;99470.19;4990841;28;20105;-54
2023/01/13 02:35:28;;;;;;;11.13;2.53;;;;;;;7.02;100.00;99482.28;4986248;28;20220;-58
2023/01/13 02:37:56;;;;;;;9.82;2.28;;;;;;;6.99;100.00;99487.97;4987512;28;20029;-67
2023/01/13 02:40:28;;;;;;;16.60;1.80;;;;;;;7.01;100.00;99483.31;4992049;28;20041;-56
2023/01/13 02:45:57;;;;;;;16.35;3.45;;;;;;;6.67;100.00;99503.31;4986372;28;20087;-51
2023/01/13 02:48:26;;;;;;;12.88;2.03;;;;;;;6.44;100.00;99473.72;4990171;28;20061;-52
2023/01/13 02:51:03;;;;;;;12.68;3.58;;;;;;;6.27;100.00;99481.91;4990737;28;20034;-52
2023/01/13 02:53:42;;;;;;;8.80;1.30;;;;;;;6.21;100.00;99481.81;4991146;28;20544;-52
2023/01/13 02:56:09;;;;;;;8.90;1.73;;;;;;;6.31;100.00;99471.78;4998160;28;21083;-49
2023/01/13 02:58:38;;;;;;;8.40;0.98;;;;;;;6.39;100.00;99478.75;4996531;28;20113;-52
2023/01/13 03:01:03;;;;;;;12.00;1.90;;;;;;;6.45;100.00;99473.53;4992933;28;20049;-51
2023/01/13 03:03:29;;;;;;;4.68;1.55;;;;;;;6.44;100.00;99469.28;4994130;28;20503;-51
2023/01/13 03:06:28;;;;;;;13.98;1.70;;;;;;;6.63;100.00;99488.06;5000998;28;20026;-52
2023/01/13 03:09:05;;;;;;;7.55;1.10;;;;;;;6.72;100.00;99469.31;4994792;28;20392;-50
2023/01/13 03:11:44;;;;;;;7.57;0.90;;;;;;;6.74;100.00;99483.13;4994886;28;20045;-52
2023/01/13 03:14:22;;;;;;;9.98;1.02;;;;;;;6.62;100.00;99495.16;4993923;28;20034;-49
2023/01/13 03:16:54;;;;;;;19.98;2.80;;;;;;;6.59;100.00;99508.72;4999544;28;20412;-52
2023/01/13 03:19:37;;;;;;;2.38;0.40;;;;;;;6.55;100.00;99507.47;5001631;28;20056;-51
2023/01/13 03:22:14;;;;;;;13.40;2.15;;;;;;;6.53;100.00;99506.81;4984423;28;20399;-52
2023/01/13 03:24:52;;;;;;;10.98;1.30;;;;;;;6.54;100.00;99519.00;4991434;28;20459;-51
2023/01/13 03:27:49;;;;;;;10.75;3.58;;;;;;;6.53;100.00;99510.28;4991303;28;20060;-50
2023/01/13 03:30:20;;;;;;;6.93;2.22;;;;;;;6.57;100.00;99523.88;4986374;28;20101;-55
2023/01/13 03:32:49;;;;;;;4.30;2.17;;;;;;;6.67;100.00;99508.59;4998410;28;20048;-50
2023/01/13 03:35:21;;;;;;;11.35;0.93;;;;;;;6.64;100.00;99524.78;4995719;28;20034;-52
2023/01/13 03:37:51;;;;;;;5.85;1.15;;;;;;;6.63;100.00;99517.84;4993335;28;20048;-54
2023/01/13 03:40:25;;;;;;;10.23;1.40;;;;;;;6.74;100.00;99511.28;4989027;28;20073;-51
2023/01/13 03:45:45;;;;;;;12.02;1.38;;;;;;;6.84;100.00;99513.59;4993569;28;20065;-53
2023/01/13 03:48:16;;;;;;;10.98;1.77;;;;;;;6.80;100.00;99514.97;4989122;28;20050;-52
2023/01/13 03:50:49;;;;;;;4.35;0.60;;;;;;;6.80;100.00;99509.72;4991987;28;20030;-56
2023/01/13 03:53:50;;;;;;;15.07;1.85;;;;;;;6.85;100.00;99531.84;4987938;28;20480;-54
2023/01/13 03:56:38;;;;;;;10.10;1.75;;;;;;;6.97;100.00;99555.88;4989990;28;20030;-51
2023/01/13 03:59:07;;;;;;;15.98;1.00;;;;;;;7.08;100.00;99515.00;4994379;28;20026;-55
2023/01/13 04:01:49;;;;;;;7.70;1.92;;;;;;;7.08;100.00;99533.47;4988411;28;20400;-52
2023/01/13 04:04:33;;;;;;;10.93;1.08;;;;;;;7.09;100.00;99527.97;4992399;28;20034;-56
2023/01/13 04:07:22;;;;;;;8.57;1.40;;;;;;;7.04;100.00;99514.56;4988474;28;20125;-55
2023/01/13 04:09:55;;;;;;;5.95;0.32;;;;;;;6.72;100.00;99514.09;4991970;28;20019;-55
2023/01/13 04:13:01;;;;;;;4.55;1.05;;;;;;;6.69;100.00;99534.75;5003680;28;20038;-56
2023/01/13 04:15:30;;;;;;;8.63;1.48;;;;;;;6.72;100.00;99545.72;4993345;28;20030;-53
2023/01/13 04:18:20;;;;;;;8.48;1.33;;;;;;;6.83;100.00;99546.22;4994531;28;20037;-54
2023/01/13 04:20:48;;;;;;;12.02;0.55;;;;;;;6.89;100.00;99537.53;5000344;28;20034;-50
2023/01/13 04:23:14;;;;;;;10.25;0.85;;;;;;;6.96;100.00;99538.41;4990373;28;20122;-52
2023/01/13 04:25:41;;;;;;;4.18;1.33;;;;;;;6.99;100.00;99516.94;4988260;28;20101;-52
2023/01/13 04:28:07;;;;;;;8.30;1.42;;;;;;;6.87;100.00;99526.41;4995761;28;20045;-52
2023/01/13 04:30:32;;;;;;;12.50;1.60;;;;;;;6.74;100.00;99520.00;5004822;28;20026;-55
2023/01/13 04:32:58;;;;;;;7.22;1.05;;;;;;;6.69;100.00;99516.31;4996880;28;20029;-57
2023/01/13 04:35:23;;;;;;;22.85;3.28;;;;;;;6.79;100.00;99511.53;4997263;28;20096;-53
2023/01/13 04:37:49;;;;;;;15.02;2.97;;;;;;;6.70;100.00;99507.41;4992219;28;20538;-53
2023/01/13 04:40:14;;;;;;;5.60;1.65;;;;;;;6.68;100.00;99510.22;4996958;28;20064;-53
2023/01/13 04:42:43;;;;;;;14.98;2.72;;;;;;;6.62;100.00;99518.88;5001054;28;20034;-53
2023/01/13 04:45:08;;;;;;;8.70;2.53;;;;;;;6.63;100.00;99512.59;4999550;28;20033;-52
2023/01/13 04:47:34;;;;;;;7.07;1.25;;;;;;;6.68;100.00;99518.09;4992130;28;20472;-53
2023/01/13 04:49:59;;;;;;;11.90;2.13;;;;;;;6.85;100.00;99528.41;4989025;28;20034;-53
2023/01/13 04:52:24;;;;;;;11.57;1.65;;;;;;;6.75;100.00;99529.53;4995877;28;20050;-54
2023/01/13 04:54:50;;;;;;;13.02;2.72;;;;;;;6.73;100.00;99531.53;4996646;28;20042;-56
2023/01/13 04:57:15;;;;;;;16.95;3.90;;;;;;;6.71;100.00;99528.28;4996433;28;20022;-52
2023/01/13 04:59:40;;;;;;;14.40;1.85;;;;;;;6.70;100.00;99550.34;4997996;28;20034;-54
2023/01/13 05:02:07;;;;;;;14.98;1.88;;;;;;;6.59;100.00;99531.63;4995292;28;20076;-53
2023/01/13 05:04:33;;;;;;;12.13;2.20;;;;;;;6.66;100.00;99541.22;4993063;28;20026;-54
2023/01/13 05:06:58;;;;;;;2.00;0.82;;;;;;;6.83;100.00;99544.41;5000470;28;20026;-55
2023/01/13 05:09:24;;;;;;;13.48;2.05;;;;;;;6.73;100.00;99539.44;4990787;28;20061;-49
2023/01/13 05:17:22;;;;;;;10.57;1.70;;;;;;;6.73;100.00;99562.34;4992498;28;20069;-61
2023/01/13 05:19:48;;;;;;;8.45;1.38;;;;;;;6.68;100.00;99562.91;4990542;28;20026;-55
2023/01/13 05:27:41;;;;;;;9.82;1.23;;;;;;;6.65;100.00;99560.63;4992282;28;20104;-49
2023/01/13 05:30:07;;;;;;;7.38;1.30;;;;;;;6.65;100.00;99560.63;4990347;28;20026;-53
2023/01/13 05:32:32;;;;;;;8.25;0.40;;;;;;;6.65;100.00;99550.09;4993668;28;20034;-49
2023/01/13 05:34:58;;;;;;;8.27;2.63;;;;;;;6.76;100.00;99578.59;4995007;28;20037;-62
2023/01/13 05:37:24;;;;;;;10.98;0.95;;;;;;;6.91;100.00;99551.34;4994780;28;20039;-51
2023/01/13 05:45:18;;;;;;;11.15;2.30;;;;;;;7.02;100.00;99553.47;4986527;28;20045;-51
2023/01/13 05:47:43;;;;;;;13.25;2.33;;;;;;;6.92;100.00;99558.28;4996479;28;20372;-52
2023/01/13 05:50:09;;;;;;;11.90;2.80;;;;;;;6.77;100.00;99550.44;4996483;28;20423;-51
2023/01/13 05:52:34;;;;;;;17.05;2.85;;;;;;;6.85;100.00;99558.19;4993094;28;20042;-52
2023/01/13 05:55:00;;;;;;;13.93;2.05;;;;;;;6.89;100.00;99556.00;4995720;28;20045;-54
2023/01/13 05:57:25;;;;;;;4.88;2.15;;;;;;;6.96;100.00;99556.88;4993899;28;20482;-47
2023/01/13 05:59:51;;;;;;;5.63;1.23;;;;;;;6.88;100.00;99557.00;4990469;28;20105;-50
2023/01/13 06:02:16;;;;;;;5.10;0.88;;;;;;;6.58;100.00;99566.84;4998207;28;20065;-51
2023/01/13 06:04:41;;;;;;;7.93;1.40;;;;;;;6.63;100.00;99560.00;4991930;28;20096;-51
2023/01/13 06:07:07;;;;;;;9.80;0.98;;;;;;;6.71;100.00;99566.97;4992922;28;20032;-49
2023/01/13 06:09:32;;;;;;;4.25;1.30;;;;;;;6.76;100.00;99570.69;4991109;28;20368;-52
2023/01/13 06:11:57;;;;;;;21.67;2.80;;;;;;;6.96;100.00;99575.31;4992613;28;20045;-50
2023/01/13 06:14:23;;;;;;;8.15;0.85;;;;;;;7.05;100.00;99579.47;4995186;28;20192;-52
2023/01/13 06:16:48;;;;;;;26.00;2.00;;;;;;;7.03;100.00;99597.28;4993147;28;20120;-53
2023/01/13 06:19:14;;;;;;;14.57;2.42;;;;;;;7.04;100.00;99596.25;4994345;28;20029;-52
2023/01/13 06:21:39;;;;;;;6.25;1.77;;;;;;;7.32;100.00;99598.94;4999222;28;20049;-50
2023/01/13 06:24:06;;;;;;;12.18;3.00;;;;;;;7.49;100.00;99585.47;4997976;28;20065;-51
2023/01/13 06:26:38;;;;;;;16.35;1.08;;;;;;;7.53;100.00;99579.59;5002701;28;20054;-52
2023/01/13 06:29:05;;;;;;;5.07;1.13;;;;;;;7.35;100.00;99593.28;4988769;28;20073;-52
2023/01/13 06:31:34;;;;;;;15.90;1.40;;;;;;;7.17;100.00;99592.94;4997879;28;20062;-51
2023/01/13 06:34:07;;;;;;;3.03;1.17;;;;;;;7.09;100.00;99593.88;4996905;28;20052;-48
2023/01/13 06:36:43;;;;;;;13.13;0.98;;;;;;;7.21;100.00;99595.00;5001476;28;20494;-51
2023/01/13 06:39:10;;;;;;;7.50;2.22;;;;;;;7.13;100.00;99599.59;4983229;28;20030;-53
2023/01/13 06:44:22;;;;;;;10.02;2.53;;;;;;;7.36;100.00;99617.84;4995672;28;20049;-54
2023/01/13 06:46:47;;;;;;;13.15;1.55;;;;;;;7.41;100.00;99610.19;4989942;28;20026;-53
2023/01/13 06:49:12;;;;;;;9.18;1.63;;;;;;;7.40;100.00;99630.44;4984518;28;20030;-49
2023/01/13 06:51:38;;;;;;;13.60;1.70;;;;;;;7.44;100.00;99607.16;4991883;28;20047;-53
2023/01/13 06:54:03;;;;;;;12.38;2.67;;;;;;;7.36;100.00;99617.84;4997423;28;20035;-50
2023/01/13 06:56:29;;;;;;;8.02;1.05;;;;;;;7.18;100.00;99611.19;4992338;28;20049;-50
2023/01/13 06:58:54;;;;;;;8.52;2.75;;;;;;;7.12;100.00;99614.59;4986430;28;20080;-50
2023/01/13 07:01:19;;;;;;;8.27;1.20;;;;;;;7.09;100.00;99667.69;4993744;28;20065;-54
2023/01/13 07:03:45;;;;;;;6.47;1.70;;;;;;;7.25;100.00;99634.16;4985166;28;20041;-52
2023/01/13 07:06:10;;;;;;;7.90;2.45;;;;;;;7.30;100.00;99629.13;4993548;28;20026;-50
2023/01/13 07:08:36;;;;;;;4.38;0.52;;;;;;;7.24;100.00;99622.81;4984292;28;20075;-65
2023/01/13 07:11:01;;;;;;;6.18;0.73;;;;;;;7.22;100.00;99643.25;4984835;28;20057;-55
2023/01/13 07:16:11;;;;;;;4.57;1.17;;;;;;;7.19;100.00;99670.81;4988986;28;20069;-54
2023/01/13 07:18:36;;;;;;;18.70;3.75;;;;;;;7.37;100.00;99662.47;4987449;28;20018;-52
2023/01/13 07:21:07;;;;;;;11.88;1.75;;;;;;;7.51;100.00;99660.78;4987059;28;20078;-55
2023/01/13 07:23:35;;;;;;;7.43;1.00;;;;;;;7.50;100.00;99645.13;4987568;28;20030;-53
2023/01/13 07:26:01;;;;;;;6.80;1.35;;;;;;;7.46;100.00;99667.59;4991672;28;20483;-52
2023/01/13 07:28:28;;;;;;;9.60;0.50;;;;;;;7.52;100.00;99670.31;4990229;28;20041;-50
2023/01/13 07:30:54;;;;;;;10.35;1.33;;;;;;;7.49;100.00;99689.16;4994510;28;20022;-50
2023/01/13 07:33:20;;;;;;;7.15;0.68;;;;;;;7.46;100.00;99664.97;4991697;28;20408;-52
2023/01/13 07:35:46;;;;;;;9.80;0.80;;;;;;;7.52;100.00;99665.03;4990577;28;20022;-48
2023/01/13 07:38:12;;;;;;;8.90;0.77;;;;;;;7.57;100.00;99681.09;4997559;28;20033;-50
2023/01/13 07:40:39;;;;;;;6.78;1.40;;;;;;;7.52;100.00;99680.88;4995491;28;20751;-53
2023/01/13 07:45:48;;;;;;;5.28;2.10;;;;;;;7.32;100.00;99700.97;4990565;28;20483;-50
2023/01/13 07:48:14;;;;;;;8.40;1.25;;;;;;;7.20;100.00;99714.66;4997420;28;20555;-53
2023/01/13 07:50:39;;;;;;;10.35;1.08;;;;;;;7.04;100.00;99753.59;4994609;28;20022;-52
2023/01/13 07:53:05;;;;;;;11.73;2.50;;;;;;;7.27;100.00;99711.25;4989979;28;20711;-49
2023/01/13 07:55:30;;;;;;;7.28;1.67;;;;;;;7.27;100.00;99703.34;4990903;28;20030;-50
2023/01/13 07:57:55;;;;;;;8.00;1.23;;;;;;;7.18;100.00;99721.13;4993781;28;20030;-48
2023/01/13 08:00:21;;;;;;;10.65;0.77;;;;;;;7.31;100.00;99723.09;5007351;28;20038;-50
2023/01/13 08:02:46;;;;;;;7.90;0.52;;;;;;;7.16;100.00;99720.50;4987953;28;20062;-52
2023/01/13 08:05:12;;;;;;;12.38;2.25;;;;;;;7.27;100.00;99733.16;4990521;28;20053;-50
2023/01/13 08:07:39;;;;;;;10.77;1.17;;;;;;;7.47;100.00;99741.28;4990908;28;20068;-50
2023/01/13 08:10:05;;;;;;;7.18;0.55;;;;;;;7.51;100.00;99732.00;4985395;28;20038;-52
2023/01/13 08:15:14;;;;;;;6.20;1.27;;;;;;;7.41;100.00;99739.41;4990298;28;20192;-47
2023/01/13 08:17:40;;;;;;;4.68;0.60;;;;;;;7.41;100.00;99756.03;4990440;28;20541;-51
2023/01/13 08:20:06;;;;;;;9.02;1.45;;;;;;;7.31;100.00;99767.91;4988646;28;20023;-52
2023/01/13 08:22:32;;;;;;;24.02;2.13;;;;;;;7.45;100.00;99753.03;4986608;28;20376;-52
2023/01/13 08:25:00;;;;;;;11.50;1.10;;;;;;;7.50;100.00;99766.47;4989935;28;20038;-53
2023/01/13 08:27:26;;;;;;;5.65;1.75;;;;;;;7.52;100.00;99770.56;4998890;28;20106;-57
2023/01/13 08:29:51;;;;;;;4.32;2.30;;;;;;;7.38;100.00;99769.63;4991950;28;20018;-52
2023/01/13 08:32:17;;;;;;;4.95;1.30;;;;;;;7.44;100.00;99781.22;4988325;28;20054;-50
2023/01/13 08:34:42;;;;;;;9.05;1.58;;;;;;;7.46;100.00;99775.75;4992597;28;20065;-50
2023/01/13 08:37:07;;;;;;;5.65;1.98;;;;;;;7.51;100.00;99799.75;4995753;28;20054;-53
2023/01/13 08:39:34;;;;;;;6.47;1.70;;;;;;;7.42;100.00;99802.50;4992611;28;20031;-52
2023/01/13 08:42:00;;;;;;;10.65;1.40;;;;;;;7.20;100.00;99820.13;4991568;28;20053;-54
2023/01/13 08:44:28;;;;;;;15.27;1.27;;;;;;;7.27;100.00;99811.47;4992207;28;20039;-52
2023/01/13 08:46:54;;;;;;;11.32;2.75;;;;;;;7.36;100.00;99819.09;4999467;28;20435;-49
2023/01/13 08:49:20;;;;;;;8.90;1.95;;;;;;;7.41;100.00;99829.91;4997182;28;20026;-53
2023/01/13 08:51:45;;;;;;;9.45;1.08;;;;;;;7.38;100.00;99832.06;4992227;28;20072;-51
2023/01/13 08:54:11;;;;;;;11.88;1.65;;;;;;;7.53;100.00;99832.03;4992148;28;20037;-49
2023/01/13 08:56:37;;;;;;;5.88;1.30;;;;;;;7.54;100.00;99850.31;4990282;28;20030;-56
2023/01/13 08:59:03;;;;;;;5.78;1.23;;;;;;;7.62;100.00;99829.09;4991478;28;20038;-48
2023/01/13 09:01:28;;;;;;;7.40;1.45;;;;;;;7.65;100.00;99838.47;4992155;28;20033;-50
2023/01/13 09:03:54;;;;;;;6.57;0.98;;;;;;;7.79;100.00;99847.31;4991436;28;20031;-50
2023/01/13 09:06:20;;;;;;;3.08;0.40;;;;;;;7.86;100.00;99856.94;4992295;28;20129;-54
2023/01/13 09:08:45;;;;;;;7.15;0.63;;;;;;;7.87;100.00;99873.59;4987854;28;20034;-54
2023/01/13 09:14:02;;;;;;;4.13;0.70;;;;;;;7.34;100.00;99871.19;4990478;28;20037;-52
2023/01/13 09:16:27;;;;;;;2.95;0.65;;;;;;;7.43;100.00;99871.91;4992353;28;20674;-52
2023/01/13 09:18:53;;;;;;;3.33;0.70;;;;;;;7.52;100.00;99881.34;4991234;28;20037;-50
2023/01/13 09:21:19;;;;;;;6.03;0.65;;;;;;;7.51;100.00;99892.91;4992299;28;20092;-54
2023/01/13 09:23:45;;;;;;;10.35;1.83;;;;;;;7.66;100.00;99903.41;4991632;28;20034;-55
2023/01/13 09:26:14;;;;;;;4.90;1.05;;;;;;;7.78;100.00;99909.84;4990679;28;20053;-52
2023/01/13 09:28:40;;;;;;;5.38;0.75;;;;;;;7.92;100.00;99917.91;4989230;28;20105;-55
2023/01/13 09:31:05;;;;;;;6.35;0.22;;;;;;;7.67;100.00;99920.06;4990994;28;20108;-54
2023/01/13 09:36:14;;;;;;;4.30;1.23;;;;;;;7.63;100.00;99928.34;4993878;28;20087;-52
2023/01/13 09:38:39;;;;;;;7.20;0.70;;;;;;;7.71;100.00;99935.34;4991578;28;20026;-49
2023/01/13 09:43:52;;;;;;;7.78;1.35;;;;;;;7.90;100.00;99938.38;4989816;28;20495;-50
2023/01/13 09:43:56;;;;;;;9.15;1.55;;;;;;;7.93;100.00;99943.31;4990156;28;20046;-54
2023/01/13 09:46:45;;;;;;;;;;;;;;;8.03;100.00;99942.00;4990220;28;20038;-50
2023/01/13 09:49:23;;;;;;;0.88;0.38;;;;;;;8.04;100.00;99954.19;4991897;28;19921;-52
2023/01/13 09:52:14;;;;;;;10.32;1.17;;;;;;;8.15;100.00;99962.63;4988628;28;20558;-51
2023/01/13 09:54:46;;;;;;;7.28;0.88;;;;;;;7.89;100.00;99965.78;4988652;28;20403;-52
2023/01/13 09:57:17;;;;;;;11.32;0.55;;;;;;;8.08;100.00;99976.59;4990270;28;20018;-49
2023/01/13 09:59:43;;;;;;;2.75;1.48;;;;;;;7.95;100.00;99971.16;4990952;28;20110;-49
2023/01/13 10:02:17;;;;;;;7.07;1.17;;;;;;;7.98;100.00;99991.09;4987299;28;20613;-52
2023/01/13 10:04:42;;;;;;;4.78;0.70;;;;;;;8.01;100.00;99996.00;4989419;28;20038;-51
2023/01/13 10:07:13;;;;;;;2.33;0.52;;;;;;;8.19;100.00;99987.66;4992112;28;20073;-49
2023/01/13 10:09:53;;;;;;;4.78;1.30;;;;;;;8.24;100.00;99991.38;4988463;28;20022;-55
2023/01/13 10:15:28;;;;;;;4.18;1.50;;;;;;;8.47;100.00;100012.34;4989020;28;20041;-49
2023/01/13 10:18:11;;;;;;;15.35;1.27;;;;;;;8.38;100.00;100029.28;4988237;28;20065;-50
2023/01/13 10:20:44;;;;;;;7.55;1.73;;;;;;;8.44;100.00;100041.81;4988243;28;20026;-52
2023/01/13 10:23:33;;;;;;;9.48;2.85;;;;;;;8.46;100.00;100023.09;4990949;28;20026;-51
2023/01/13 10:26:23;;;;;;;7.93;0.85;;;;;;;8.52;100.00;100022.38;4988881;28;20042;-51
2023/01/13 10:28:56;;;;;;;5.72;1.55;;;;;;;8.43;100.00;100037.50;4989542;28;20037;-53
2023/01/13 10:31:23;;;;;;;3.05;0.80;;;;;;;8.57;100.00;100037.63;4988562;28;20041;-49
2023/01/13 10:33:58;;;;;;;6.28;1.17;;;;;;;8.72;100.00;100036.59;4986333;28;20526;-54
2023/01/13 10:36:23;;;;;;;10.13;1.60;;;;;;;8.77;100.00;100020.13;4990854;28;20038;-48
2023/01/13 10:38:50;;;;;;;6.47;2.15;;;;;;;8.68;100.00;100059.09;4989915;28;20423;-54
2023/01/13 10:41:17;;;;;;;12.95;0.70;;;;;;;8.73;100.00;100042.69;4990109;28;20077;-48
2023/01/13 10:43:43;;;;;;;1.90;0.55;;;;;;;8.70;100.00;100051.81;4990929;28;20022;-50
2023/01/13 10:46:14;;;;;;;24.13;2.20;;;;;;;8.65;100.00;100050.75;4988815;28;20084;-51
2023/01/13 10:48:52;;;;;;;3.67;0.63;;;;;;;8.83;100.00;100069.63;4990424;28;20453;-53
2023/01/13 10:51:20;;;;;;;2.67;1.45;;;;;;;9.12;100.00;100062.53;4991178;28;20089;-54
2023/01/13 10:53:51;;;;;;;8.70;0.95;;;;;;;9.33;100.00;100083.66;4992015;28;20058;-52
2023/01/13 10:56:18;;;;;;;5.10;1.43;;;;;;;9.35;100.00;100079.00;4995465;28;20433;-53
2023/01/13 10:58:44;;;;;;;9.43;1.85;;;;;;;9.36;100.00;100111.56;4996087;28;20379;-51
2023/01/13 11:01:29;;;;;;;3.22;0.70;;;;;;;9.30;100.00;100080.59;4988521;28;20026;-54
2023/01/13 11:03:55;;;;;;;10.30;1.33;;;;;;;9.54;100.00;100111.06;4990715;28;20026;-54
2023/01/13 11:06:20;;;;;;;12.10;1.35;;;;;;;9.63;100.00;100101.16;4994618;28;20336;-51
2023/01/13 11:08:48;;;;;;;4.15;0.60;;;;;;;9.56;100.00;100091.34;4992215;28;20060;-59
2023/01/13 11:11:37;;;;;;;6.22;1.48;;;;;;;9.46;100.00;100101.44;4990440;28;20388;-52
2023/01/13 11:16:55;;;;;;;1.73;0.57;;;;;;;9.40;100.00;100099.59;4991744;28;20104;-50
2023/01/13 11:19:26;;;;;;;4.53;1.42;;;;;;;9.49;100.00;100110.84;4993214;28;20125;-55
2023/01/13 11:21:59;;;;;;;4.10;0.60;;;;;;;9.68;100.00;100115.47;4997278;28;20025;-50
2023/01/13 11:24:25;;;;;;;5.93;1.25;;;;;;;9.98;100.00;100117.84;4992298;28;20072;-49
2023/01/13 11:26:58;;;;;;;6.03;0.80;;;;;;;10.31;100.00;100133.94;4994796;28;20046;-55
2023/01/13 11:29:32;;;;;;;3.22;0.68;;;;;;;10.02;100.00;100127.06;4994698;28;20030;-55
2023/01/13 11:32:07;;;;;;;9.35;0.80;;;;;;;9.98;100.00;100145.16;4988881;28;20066;-56
2023/01/13 11:34:39;;;;;;;7.90;1.55;;;;;;;9.72;100.00;100142.34;4988698;28;20031;-54
2023/01/13 11:37:16;;;;;;;5.30;2.25;;;;;;;9.71;100.00;100125.66;4998014;28;20065;-55
2023/01/13 11:39:52;;;;;;;3.42;0.98;;;;;;;9.70;100.00;100129.28;4990901;28;20073;-52
2023/01/13 11:42:32;;;;;;;3.72;0.70;;;;;;;9.74;100.00;100143.78;4984729;28;20030;-54
2023/01/13 11:45:19;;;;;;;6.22;0.57;;;;;;;9.86;100.00;100132.66;4989523;28;20034;-52
2023/01/13 11:47:47;;;;;;;4.30;0.90;;;;;;;9.98;100.00;100142.50;4993629;28;20035;-49
2023/01/13 11:50:33;;;;;;;4.75;0.65;;;;;;;10.03;100.00;100139.28;4990594;28;20457;-50
2023/01/13 11:53:19;;;;;;;14.43;1.60;;;;;;;9.89;100.00;100143.69;4999122;28;20118;-52
2023/01/13 11:56:09;;;;;;;6.13;1.13;;;;;;;10.01;100.00;100142.13;4990072;28;20054;-47
2023/01/13 11:58:51;;;;;;;4.43;0.47;;;;;;;9.95;100.00;100157.97;4996532;28;20049;-51
2023/01/13 12:01:29;;;;;;;7.68;1.35;;;;;;;9.83;100.00;100149.75;4989947;28;20028;-51
2023/01/13 12:04:23;;;;;;;7.03;0.52;;;;;;;10.00;100.00;100155.56;4991873;28;20026;-54
2023/01/13 12:07:11;;;;;;;8.00;1.65;;;;;;;10.20;100.00;100158.34;4992761;28;20030;-56
2023/01/13 12:09:36;;;;;;;8.10;1.02;;;;;;;10.22;100.00;100166.88;4993530;28;20069;-55
2023/01/13 12:12:21;;;;;;;6.50;1.08;;;;;;;10.19;100.00;100165.44;4991591;28;20053;-53
2023/01/13 12:15:02;;;;;;;8.63;1.00;;;;;;;10.20;100.00;100164.44;4991601;28;20472;-55
2023/01/13 12:17:36;;;;;;;4.97;0.80;;;;;;;10.21;100.00;100174.00;4995491;28;20379;-56
2023/01/13 12:20:25;;;;;;;3.10;0.35;;;;;;;10.29;100.00;100169.59;4977212;28;20039;-56
2023/01/13 12:22:53;;;;;;;6.78;1.23;;;;;;;10.29;100.00;100159.00;4992650;28;20562;-52
2023/01/13 12:25:38;;;;;;;4.53;0.20;;;;;;;10.50;100.00;100164.19;4994416;28;20031;-49
2023/01/13 12:28:12;;;;;;;7.57;2.35;;;;;;;10.35;100.00;100176.75;4992326;28;20157;-55
2023/01/13 12:30:45;;;;;;;15.05;2.08;;;;;;;10.44;100.00;100168.44;4994785;28;20041;-49
2023/01/13 12:33:32;;;;;;;8.43;0.68;;;;;;;10.49;100.00;100186.41;4990587;28;20022;-53
2023/01/13 12:36:05;;;;;;;5.15;1.00;;;;;;;10.44;100.00;100194.16;4992432;28;20030;-52